createdAt,value
2023-05-14T00:01:52.249Z,59.53
2023-05-14T00:06:55.083Z,59.28
2023-05-14T00:11:59.429Z,59.41
2023-05-14T00:17:01.889Z,59.83
2023-05-14T00:22:04.277Z,59.51
2023-05-14T00:27:07.378Z,59.51
2023-05-14T00:32:10.265Z,59.59
2023-05-14T00:37:13.242Z,59.34
2023-05-14T00:42:15.671Z,59.65
2023-05-14T00:47:18.268Z,59.77
2023-05-14T00:52:22.898Z,60.63
2023-05-14T00:57:25.846Z,60.63
2023-05-14T01:02:28.719Z,60.43
2023-05-14T01:07:46.610Z,60.85
2023-05-14T01:13:09.822Z,62.25
2023-05-14T01:18:16.972Z,60.76
2023-05-14T01:23:20.993Z,61.94
2023-05-14T01:28:35.120Z,61.95
2023-05-14T01:33:41.684Z,61.36
2023-05-14T01:38:46.633Z,62.79
2023-05-14T01:43:49.640Z,62.53
2023-05-14T01:48:54.116Z,63.04
2023-05-14T01:53:57.197Z,62.41
2023-05-14T01:59:00.352Z,62.54
2023-05-14T02:04:02.781Z,62.74
2023-05-14T02:09:05.319Z,62.02
2023-05-14T02:14:08.465Z,62.32
2023-05-14T02:19:11.474Z,62.02
2023-05-14T02:24:34.348Z,61.88
2023-05-14T02:29:36.624Z,62.13
2023-05-14T02:34:39.568Z,61.04
2023-05-14T02:39:43.030Z,60.94
2023-05-14T02:44:46.062Z,58.39
2023-05-14T02:49:48.494Z,57.19
2023-05-14T02:54:50.847Z,55.87
2023-05-14T02:59:53.817Z,54.36
2023-05-14T03:04:56.341Z,52.67
2023-05-14T03:10:00.538Z,49.26
2023-05-14T03:15:05.431Z,46.94
2023-05-14T03:20:08.740Z,43.38
2023-05-14T03:25:11.556Z,41.95
2023-05-14T03:30:14.115Z,39.89
2023-05-14T03:35:17.874Z,38.38
2023-05-14T03:40:21.864Z,37.39
2023-05-14T03:45:27.209Z,36.12
2023-05-14T03:50:29.722Z,35.35
2023-05-14T03:55:32.124Z,34.50
2023-05-14T04:00:35.332Z,33.37
2023-05-14T04:05:37.579Z,31.35
2023-05-14T04:10:41.316Z,30.47
2023-05-14T04:15:44.357Z,29.90
2023-05-14T04:20:47.808Z,30.18
2023-05-14T04:25:52.173Z,29.22
2023-05-14T04:30:55.677Z,29.71
2023-05-14T04:35:58.122Z,29.63
2023-05-14T04:41:00.620Z,29.27
2023-05-14T04:46:05.138Z,27.35
2023-05-14T04:51:08.826Z,25.96
2023-05-14T04:56:12.791Z,25.24
2023-05-14T05:01:16.012Z,24.00
2023-05-14T05:06:19.541Z,21.90
2023-05-14T05:11:21.924Z,21.70
2023-05-14T05:16:24.871Z,20.76
2023-05-14T05:21:27.915Z,21.42
2023-05-14T05:26:32.558Z,19.97
2023-05-14T05:31:36.933Z,20.39
2023-05-14T05:36:39.894Z,20.22
2023-05-14T05:41:42.709Z,19.61
2023-05-14T05:46:47.233Z,19.22
2023-05-14T05:51:51.580Z,18.00
2023-05-14T05:56:54.600Z,19.04
2023-05-14T06:01:57.520Z,18.56
2023-05-14T06:07:00.410Z,19.40
2023-05-14T06:12:04.072Z,17.80
2023-05-14T06:17:07.773Z,17.37
2023-05-14T06:22:10.689Z,17.75
2023-05-14T06:27:13.931Z,17.50
2023-05-14T06:32:16.439Z,17.34
2023-05-14T06:37:18.850Z,16.10
2023-05-14T06:42:21.456Z,17.28
2023-05-14T06:47:25.502Z,17.70
2023-05-14T06:52:28.898Z,16.30
2023-05-14T06:57:32.366Z,16.59
2023-05-14T07:02:36.914Z,16.31
2023-05-14T07:07:39.850Z,15.58
2023-05-14T07:12:44.338Z,16.04
2023-05-14T07:17:47.244Z,17.12
2023-05-14T07:22:53.363Z,16.95
2023-05-14T07:27:57.201Z,16.36
2023-05-14T07:33:00.316Z,17.58
2023-05-14T07:38:03.324Z,17.08
2023-05-14T07:43:06.162Z,18.32
2023-05-14T07:48:09.612Z,18.45
2023-05-14T07:53:11.998Z,18.57
2023-05-14T07:58:15.118Z,19.37
2023-05-14T08:03:18.093Z,19.96
2023-05-14T08:08:20.888Z,20.90
2023-05-14T08:13:23.182Z,20.63
2023-05-14T08:18:26.756Z,20.76
2023-05-14T08:23:29.156Z,21.20
2023-05-14T08:28:31.656Z,21.65
2023-05-14T08:33:34.186Z,22.35
2023-05-14T08:38:36.551Z,22.74
2023-05-14T08:43:45.642Z,22.80
2023-05-14T08:48:57.984Z,22.63
2023-05-14T08:54:03.347Z,22.79
2023-05-14T08:59:06.477Z,22.77
2023-05-14T09:04:09.968Z,23.24
2023-05-14T09:09:13.380Z,22.70
2023-05-14T09:14:16.264Z,23.19
2023-05-14T09:19:21.626Z,22.58
2023-05-14T09:24:26.487Z,23.08
2023-05-14T09:29:30.001Z,22.49
2023-05-14T09:34:35.331Z,23.03
2023-05-14T09:39:41.472Z,22.23
2023-05-14T09:44:43.864Z,22.89
2023-05-14T09:49:49.846Z,23.42
2023-05-14T09:54:53.543Z,23.15
2023-05-14T09:59:57.434Z,23.11
2023-05-14T10:05:02.942Z,23.16
2023-05-14T10:10:09.473Z,24.28
2023-05-14T10:15:23.259Z,32.56
2023-05-14T10:20:27.934Z,25.58
2023-05-14T10:25:31.382Z,32.32
2023-05-14T10:30:34.658Z,27.10
2023-05-14T10:35:58.325Z,27.73
2023-05-14T10:41:12.165Z,28.55
2023-05-14T10:46:15.195Z,24.90
2023-05-14T10:51:21.506Z,26.26
2023-05-14T10:56:24.738Z,25.35
2023-05-14T11:01:29.680Z,24.64
2023-05-14T11:06:33.314Z,23.49
2023-05-14T11:11:37.691Z,23.63
2023-05-14T11:16:41.632Z,23.67
2023-05-14T11:21:45.745Z,24.08
2023-05-14T11:26:48.772Z,23.61
2023-05-14T11:31:51.160Z,25.32
2023-05-14T11:36:53.928Z,26.63
2023-05-14T11:42:20.375Z,25.13
2023-05-14T11:47:23.224Z,24.04
2023-05-14T11:52:26.069Z,24.14
2023-05-14T11:57:31.377Z,24.57
2023-05-14T12:02:34.620Z,23.88
2023-05-14T12:07:37.045Z,23.12
2023-05-14T12:12:40.018Z,23.29
2023-05-14T12:17:44.233Z,24.08
2023-05-14T12:22:46.977Z,24.14
2023-05-14T12:27:49.847Z,23.95
2023-05-14T12:32:53.329Z,24.95
2023-05-14T12:37:56.589Z,24.95
2023-05-14T12:42:59.440Z,25.67
2023-05-14T12:48:02.997Z,25.14
2023-05-14T12:53:05.922Z,24.94
2023-05-14T12:58:08.285Z,25.50
2023-05-14T13:03:11.248Z,26.35
2023-05-14T13:08:18.466Z,25.49
2023-05-14T13:13:21.101Z,25.73
2023-05-14T13:18:23.349Z,27.05
2023-05-14T13:23:27.422Z,26.19
2023-05-14T13:28:30.238Z,25.60
2023-05-14T13:33:38.055Z,25.49
2023-05-14T13:38:42.406Z,25.72
2023-05-14T13:43:45.399Z,26.04
2023-05-14T13:48:48.317Z,25.38
2023-05-14T13:53:52.090Z,26.35
2023-05-14T13:58:54.790Z,25.25
2023-05-14T14:03:59.216Z,22.93
2023-05-14T14:09:02.144Z,22.77
2023-05-14T14:14:04.768Z,24.53
2023-05-14T14:19:07.354Z,27.13
2023-05-14T14:24:10.675Z,28.19
2023-05-14T14:29:13.857Z,28.65
2023-05-14T14:34:16.656Z,29.34
2023-05-14T14:39:21.313Z,30.56
2023-05-14T14:44:24.171Z,30.25
2023-05-14T14:49:29.359Z,29.94
2023-05-14T14:54:32.787Z,31.00
2023-05-14T14:59:36.428Z,30.65
2023-05-14T15:04:39.027Z,31.22
2023-05-14T15:09:41.904Z,31.18
2023-05-14T15:14:47.280Z,31.52
2023-05-14T15:19:50.033Z,30.94
2023-05-14T15:24:53.242Z,30.84
2023-05-14T15:29:56.439Z,30.90
2023-05-14T15:34:58.871Z,30.42
2023-05-14T15:40:01.865Z,30.76
2023-05-14T15:45:06.196Z,31.21
2023-05-14T15:50:10.538Z,32.18
2023-05-14T15:55:12.952Z,32.47
2023-05-14T16:00:16.593Z,33.25
2023-05-14T16:05:19.288Z,33.56
2023-05-14T16:10:22.749Z,34.38
2023-05-14T16:15:26.142Z,35.54
2023-05-14T16:20:29.082Z,35.89
2023-05-14T16:25:32.228Z,35.96
2023-05-14T16:30:35.277Z,36.95
2023-05-14T16:35:37.753Z,37.61
2023-05-14T16:40:40.066Z,39.10
2023-05-14T16:45:42.983Z,38.95
2023-05-14T16:50:46.207Z,39.44
2023-05-14T16:55:48.565Z,39.55
2023-05-14T17:00:51.090Z,40.28
2023-05-14T17:05:54.522Z,39.69
2023-05-14T17:10:57.216Z,41.05
2023-05-14T17:16:00.485Z,41.44
2023-05-14T17:21:05.028Z,41.73
2023-05-14T17:26:07.589Z,41.68
2023-05-14T17:31:10.083Z,42.81
2023-05-14T17:36:12.364Z,43.39
2023-05-14T17:41:15.004Z,44.11
2023-05-14T17:46:17.527Z,44.24
2023-05-14T17:51:19.881Z,44.83
2023-05-14T17:56:23.415Z,44.98
2023-05-14T18:01:26.199Z,44.89
2023-05-14T18:06:28.731Z,46.25
2023-05-14T18:11:33.919Z,46.90
2023-05-14T18:16:37.953Z,47.03
2023-05-14T18:21:40.205Z,47.55
2023-05-14T18:26:42.716Z,47.78
2023-05-14T18:31:45.061Z,48.13
2023-05-14T18:36:47.712Z,47.93
2023-05-14T18:41:50.077Z,48.09
2023-05-14T18:46:53.510Z,48.28
2023-05-14T18:51:56.128Z,48.82
2023-05-14T18:56:58.972Z,49.30
2023-05-14T19:02:02.182Z,49.95
2023-05-14T19:07:05.443Z,49.42
2023-05-14T19:12:08.405Z,48.58
2023-05-14T19:17:11.729Z,49.80
2023-05-14T19:22:14.246Z,50.04
2023-05-14T19:27:17.736Z,49.25
2023-05-14T19:32:20.198Z,49.41
2023-05-14T19:37:23.309Z,49.15
2023-05-14T19:42:25.897Z,49.73
2023-05-14T19:47:29.316Z,50.08
2023-05-14T19:52:32.504Z,49.72
2023-05-14T19:57:35.323Z,50.10
2023-05-14T20:02:40.855Z,50.59
2023-05-14T20:07:43.950Z,50.76
2023-05-14T20:12:46.299Z,51.23
2023-05-14T20:17:48.780Z,50.95
2023-05-14T20:22:51.157Z,50.58
2023-05-14T20:27:53.643Z,50.03
2023-05-14T20:32:56.380Z,49.31
2023-05-14T20:37:59.780Z,49.88
2023-05-14T20:43:02.215Z,49.74
2023-05-14T20:48:10.398Z,50.16
2023-05-14T20:53:13.179Z,49.45
2023-05-14T20:58:16.171Z,49.47
2023-05-14T21:03:18.680Z,49.24
2023-05-14T21:08:21.847Z,49.11
2023-05-14T21:13:24.303Z,49.82
2023-05-14T21:18:31.407Z,49.58
2023-05-14T21:23:34.927Z,49.41
2023-05-14T21:28:37.310Z,49.75
2023-05-14T21:33:41.064Z,49.54
2023-05-14T21:38:43.964Z,48.83
2023-05-14T21:43:47.125Z,48.97
2023-05-14T21:48:50.094Z,49.17
2023-05-14T21:53:52.999Z,49.57
2023-05-14T21:58:56.292Z,49.85
2023-05-14T22:03:59.075Z,50.46
2023-05-14T22:09:03.114Z,50.81
2023-05-14T22:14:06.573Z,50.83
2023-05-14T22:19:08.894Z,51.04
2023-05-14T22:24:11.943Z,49.46
2023-05-14T22:29:15.425Z,50.01
2023-05-14T22:34:17.846Z,50.01
2023-05-14T22:39:21.161Z,49.24
2023-05-14T22:44:25.795Z,49.76
2023-05-14T22:49:29.863Z,49.72
2023-05-14T22:54:32.270Z,49.25
2023-05-14T22:59:34.638Z,48.74
2023-05-14T23:04:37.088Z,48.33
2023-05-14T23:09:39.513Z,48.63
2023-05-14T23:14:42.804Z,48.34
2023-05-14T23:19:46.322Z,48.90
2023-05-14T23:24:48.765Z,49.41
2023-05-14T23:29:51.356Z,49.89
2023-05-14T23:34:54.234Z,50.29
2023-05-14T23:39:57.168Z,50.75
2023-05-14T23:44:59.444Z,50.98
2023-05-14T23:50:02.301Z,52.01
2023-05-14T23:55:07.463Z,52.45
